Time;durP1;ratioP1;P1;durP2;ratioP2;P2;SDS_P1;SDS_P2;PMS_P1;PMS_P2;Temp;Humidity;BMP_temperature;BMP_pressure;BME280_temperature;BME280_humidity;BME280_pressure;Samples;Min_cycle;Max_cycle;Signal;HPM_P1;HPM_P2
2022/12/09 00:01:22;;;;;;;49.17;22.57;;;;;;;4.45;100.00;100412.45;124017;1099;104290;-80
2022/12/09 00:03:54;;;;;;;49.33;22.43;;;;;;;4.46;100.00;100419.45;124096;1099;104325;-80
2022/12/09 00:06:28;;;;;;;47.67;21.40;;;;;;;4.47;100.00;100418.62;124175;1099;104244;-80
2022/12/09 00:08:59;;;;;;;48.73;22.35;;;;;;;4.49;100.00;100430.02;124206;1099;104364;-80
2022/12/09 00:11:31;;;;;;;50.65;22.30;;;;;;;4.50;100.00;100431.80;124076;1099;104253;-80
2022/12/09 00:14:02;;;;;;;48.70;22.03;;;;;;;4.53;100.00;100438.89;123888;1099;104380;-79
2022/12/09 00:16:33;;;;;;;48.90;21.60;;;;;;;4.54;100.00;100432.89;123816;1098;104296;-79
2022/12/09 00:19:06;;;;;;;53.17;22.40;;;;;;;4.55;100.00;100432.98;123906;1099;104284;-80
2022/12/09 00:21:37;;;;;;;49.53;21.73;;;;;;;4.56;100.00;100424.36;123939;1099;104274;-79
2022/12/09 00:24:12;;;;;;;49.03;20.93;;;;;;;4.56;100.00;100432.16;123837;1099;104351;-79
2022/12/09 00:26:43;;;;;;;50.50;21.87;;;;;;;4.58;100.00;100420.17;124014;1099;104330;-78
2022/12/09 00:29:14;;;;;;;50.17;22.00;;;;;;;4.59;100.00;100415.86;123690;1099;105562;-79
2022/12/09 00:31:46;;;;;;;48.20;21.00;;;;;;;4.58;100.00;100417.57;123919;1099;104345;-79
2022/12/09 00:34:17;;;;;;;48.17;20.30;;;;;;;4.58;100.00;100406.25;123890;1099;104775;-79
2022/12/09 00:36:48;;;;;;;48.60;21.63;;;;;;;4.58;100.00;100416.66;123894;1099;104245;-80
2022/12/09 00:39:19;;;;;;;47.40;20.70;;;;;;;4.59;100.00;100421.94;124023;1099;104261;-80
2022/12/09 00:41:51;;;;;;;47.23;21.07;;;;;;;4.60;100.00;100425.45;123939;1098;107367;-80
2022/12/09 00:44:23;;;;;;;47.80;21.23;;;;;;;4.61;100.00;100417.75;123641;1099;104286;-81
2022/12/09 00:46:54;;;;;;;49.43;22.13;;;;;;;4.61;100.00;100412.55;123897;1099;104281;-80
2022/12/09 00:49:25;;;;;;;49.20;21.30;;;;;;;4.63;100.00;100416.13;123707;1099;104313;-80
2022/12/09 00:51:56;;;;;;;50.13;22.30;;;;;;;4.66;100.00;100410.22;123942;1099;118835;-80
2022/12/09 00:54:27;;;;;;;49.30;21.50;;;;;;;4.66;100.00;100394.62;123870;1099;104360;-80
2022/12/09 00:56:58;;;;;;;50.97;21.43;;;;;;;4.65;100.00;100388.51;123725;1099;104215;-80
2022/12/09 00:59:29;;;;;;;51.10;21.50;;;;;;;4.65;100.00;100396.30;123759;1099;104265;-80
2022/12/09 01:02:01;;;;;;;47.97;19.73;;;;;;;4.66;100.00;100394.62;123726;1099;104300;-80
2022/12/09 01:04:32;;;;;;;43.77;18.90;;;;;;;4.67;100.00;100388.59;123909;1099;104354;-80
2022/12/09 01:07:03;;;;;;;48.93;19.20;;;;;;;4.65;100.00;100372.91;123932;1099;104332;-80
2022/12/09 01:09:36;;;;;;;49.00;19.20;;;;;;;4.64;100.00;100371.14;124023;1099;104368;-80
2022/12/09 01:12:07;;;;;;;;;;;;;;;4.64;100.00;100384.14;123734;1099;104281;-80
2022/12/09 01:14:38;;;;;;;45.10;18.70;;;;;;;4.66;100.00;100389.42;123960;1099;104284;-80
2022/12/09 01:17:09;;;;;;;46.27;18.10;;;;;;;4.66;100.00;100372.11;123774;1099;104412;-80
2022/12/09 01:19:41;;;;;;;45.95;17.75;;;;;;;4.68;100.00;100367.01;123975;1099;104275;-80
2022/12/09 01:22:12;;;;;;;46.37;17.53;;;;;;;4.67;100.00;100360.92;123923;1099;104264;-80
2022/12/09 01:24:43;;;;;;;49.17;18.37;;;;;;;4.67;100.00;100362.61;123954;1098;104257;-80
2022/12/09 01:27:14;;;;;;;52.00;19.80;;;;;;;4.68;100.00;100361.80;123864;1099;104226;-80
2022/12/09 01:29:45;;;;;;;50.47;18.40;;;;;;;4.69;100.00;100366.20;124005;1099;104303;-80
2022/12/09 01:32:17;;;;;;;59.03;20.17;;;;;;;4.70;100.00;100377.48;123969;1099;104220;-80
2022/12/09 01:34:48;;;;;;;47.97;19.70;;;;;;;4.69;100.00;100371.41;124190;1099;104230;-80
2022/12/09 01:37:19;;;;;;;51.25;19.25;;;;;;;4.67;100.00;100367.80;123637;1098;104438;-80
2022/12/09 01:39:52;;;;;;;51.47;18.07;;;;;;;4.67;100.00;100368.72;123895;1099;104249;-81
2022/12/09 01:42:26;;;;;;;47.77;18.43;;;;;;;4.67;100.00;100360.92;123760;1099;104360;-80
2022/12/09 01:45:37;;;;;;;49.60;19.30;;;;;;;4.66;100.00;100361.72;123782;1099;104251;-79
2022/12/09 01:48:12;;;;;;;48.93;17.50;;;;;;;4.67;100.00;100357.41;124057;1098;104299;-79
2022/12/09 01:50:50;;;;;;;55.50;17.40;;;;;;;4.67;100.00;100345.33;124490;1099;104258;-79
2022/12/09 01:53:26;;;;;;;64.37;17.87;;;;;;;4.67;100.00;100350.53;124257;1099;104181;-79
2022/12/09 01:56:01;;;;;;;57.43;18.70;;;;;;;4.66;100.00;100343.53;124140;1099;104248;-79
2022/12/09 01:58:34;;;;;;;52.03;18.90;;;;;;;4.67;100.00;100353.13;124321;1099;104297;-80
2022/12/09 02:01:06;;;;;;;63.00;18.13;;;;;;;4.69;100.00;100348.02;123901;1098;104255;-79
2022/12/09 02:03:38;;;;;;;47.83;18.13;;;;;;;4.70;100.00;100348.90;123920;1099;110780;-80
2022/12/09 02:06:09;;;;;;;58.10;18.70;;;;;;;4.70;100.00;100348.90;124289;1099;104299;-80
2022/12/09 02:08:41;;;;;;;52.27;17.40;;;;;;;4.72;100.00;100347.27;123883;1099;104181;-79
2022/12/09 02:11:20;;;;;;;55.17;17.30;;;;;;;4.72;100.00;100345.59;123973;1098;104299;-80
2022/12/09 02:14:01;;;;;;;63.77;18.43;;;;;;;4.73;100.00;100336.96;123911;1099;104223;-80
2022/12/09 02:16:42;;;;;;;55.17;17.87;;;;;;;4.73;100.00;100339.56;123803;1099;104331;-79
2022/12/09 02:19:29;;;;;;;54.20;18.63;;;;;;;4.75;100.00;100342.25;124059;1099;104252;-81
2022/12/09 02:22:01;;;;;;;49.67;18.17;;;;;;;4.74;100.00;100327.48;123760;1099;104360;-80
2022/12/09 02:24:43;;;;;;;53.53;17.80;;;;;;;4.76;100.00;100328.45;123980;1099;104309;-81
2022/12/09 02:27:23;;;;;;;59.60;17.83;;;;;;;4.77;100.00;100319.82;124152;1099;104351;-80
2022/12/09 02:30:08;;;;;;;54.50;18.07;;;;;;;4.75;100.00;100321.45;123689;1099;104299;-80
2022/12/09 02:32:57;;;;;;;52.27;16.40;;;;;;;4.74;100.00;100320.56;123361;1099;104360;-80
2022/12/09 02:35:39;;;;;;;54.53;16.70;;;;;;;4.73;100.00;100321.36;123815;1099;104821;-79
2022/12/09 02:38:15;;;;;;;51.55;16.00;;;;;;;4.73;100.00;100323.96;123884;1099;104333;-80
2022/12/09 02:40:52;;;;;;;52.53;16.73;;;;;;;4.74;100.00;100320.56;123782;1099;104322;-80
2022/12/09 02:43:28;;;;;;;63.63;15.07;;;;;;;4.75;100.00;100321.45;124103;1098;104306;-80
2022/12/09 02:46:02;;;;;;;49.67;16.27;;;;;;;4.75;100.00;100318.85;124156;1099;104229;-81
2022/12/09 02:48:37;;;;;;;47.23;16.73;;;;;;;4.74;100.00;100312.77;123950;1099;104350;-81
2022/12/09 02:51:14;;;;;;;49.47;15.60;;;;;;;4.75;100.00;100304.14;123704;1102;104332;-80
2022/12/09 02:53:48;;;;;;;51.73;15.03;;;;;;;4.75;100.00;100296.34;123806;1102;104415;-80
2022/12/09 02:56:22;;;;;;;46.17;15.83;;;;;;;4.74;100.00;100304.97;123839;1099;104275;-80
2022/12/09 02:58:54;;;;;;;52.27;16.05;;;;;;;4.72;100.00;100298.80;124366;1099;104351;-79
2022/12/09 03:01:36;;;;;;;45.50;16.73;;;;;;;4.71;100.00;100296.12;124245;1099;104326;-80
2022/12/09 03:04:13;;;;;;;47.10;18.07;;;;;;;4.71;100.00;100303.91;124165;1099;104396;-78
2022/12/09 03:06:51;;;;;;;58.20;19.03;;;;;;;4.68;100.00;100305.51;124237;1099;104299;-78
2022/12/09 03:09:27;;;;;;;51.63;17.10;;;;;;;4.66;100.00;100301.94;124072;1099;104278;-80
2022/12/09 03:12:05;;;;;;;44.40;16.30;;;;;;;4.69;100.00;100306.42;123592;1099;104226;-80
2022/12/09 03:14:41;;;;;;;48.27;16.53;;;;;;;4.71;100.00;100306.52;123925;1099;104441;-79
2022/12/09 03:17:18;;;;;;;48.93;17.17;;;;;;;4.72;100.00;100298.80;123839;1099;104309;-79
2022/12/09 03:19:54;;;;;;;47.90;18.37;;;;;;;4.75;100.00;100292.86;123939;1099;104331;-80
2022/12/09 03:22:28;;;;;;;50.40;18.40;;;;;;;4.75;100.00;100288.55;123926;1099;104336;-79
2022/12/09 03:25:06;;;;;;;46.07;17.93;;;;;;;4.76;100.00;100286.86;123941;1099;104350;-79
2022/12/09 03:27:42;;;;;;;44.77;18.10;;;;;;;4.76;100.00;100287.74;123886;1099;104354;-79
2022/12/09 03:30:16;;;;;;;55.47;17.60;;;;;;;4.78;100.00;100288.71;123786;1099;104709;-79
2022/12/09 03:32:48;;;;;;;42.60;18.17;;;;;;;4.80;100.00;100286.20;123875;1099;104334;-78
2022/12/09 03:35:24;;;;;;;46.17;17.30;;;;;;;4.80;100.00;100288.80;123978;1099;104348;-81
2022/12/09 03:37:57;;;;;;;48.90;17.23;;;;;;;4.80;100.00;100292.31;123998;1099;104258;-78
2022/12/09 03:40:30;;;;;;;44.60;16.73;;;;;;;4.80;100.00;100292.31;124048;1098;104380;-78
2022/12/09 03:43:05;;;;;;;56.25;17.85;;;;;;;4.81;100.00;100285.40;123901;1099;104229;-79
2022/12/09 03:45:37;;;;;;;49.17;17.93;;;;;;;4.84;100.00;100282.97;123832;1099;104329;-79
2022/12/09 03:48:09;;;;;;;45.50;17.33;;;;;;;4.84;100.00;100282.97;124081;1099;104248;-78
2022/12/09 03:50:49;;;;;;;47.67;16.97;;;;;;;4.84;100.00;100276.05;123805;1099;104198;-79
2022/12/09 03:53:26;;;;;;;50.07;17.60;;;;;;;4.84;100.00;100267.37;123858;1099;104281;-79
2022/12/09 03:56:02;;;;;;;45.80;18.07;;;;;;;4.84;100.00;100267.37;123797;1099;108324;-79
2022/12/09 03:58:36;;;;;;;41.45;18.40;;;;;;;4.84;100.00;100277.77;123858;1099;104271;-79
2022/12/09 04:01:08;;;;;;;53.60;18.50;;;;;;;4.84;100.00;100282.97;124041;1099;104274;-79
2022/12/09 04:03:43;;;;;;;44.90;18.87;;;;;;;4.85;100.00;100262.25;124184;1098;104254;-78
2022/12/09 04:06:14;;;;;;;47.73;19.63;;;;;;;4.85;100.00;100262.25;124172;1099;118502;-79
2022/12/09 04:08:45;;;;;;;51.53;19.00;;;;;;;4.86;100.00;100261.45;124052;1099;104241;-79
2022/12/09 04:11:17;;;;;;;43.23;17.53;;;;;;;4.88;100.00;100253.73;124045;1099;104172;-79
2022/12/09 04:13:48;;;;;;;41.37;18.17;;;;;;;4.90;100.00;100266.82;124073;1099;104229;-78
2022/12/09 04:16:19;;;;;;;36.77;16.53;;;;;;;4.90;100.00;100270.30;124049;1099;104309;-79
2022/12/09 04:18:50;;;;;;;38.87;16.53;;;;;;;4.92;100.00;100268.67;124149;1099;104310;-78
2022/12/09 04:21:21;;;;;;;38.40;16.95;;;;;;;4.92;100.00;100273.88;123671;1099;104389;-79
2022/12/09 04:23:52;;;;;;;44.57;17.57;;;;;;;4.94;100.00;100273.95;123924;1099;104363;-78
2022/12/09 04:26:24;;;;;;;39.13;15.70;;;;;;;4.96;100.00;100277.56;123817;1099;104345;-79
2022/12/09 04:28:55;;;;;;;38.17;16.43;;;;;;;4.96;100.00;100265.44;123863;1099;104252;-79
2022/12/09 04:31:28;;;;;;;41.33;16.73;;;;;;;4.97;100.00;100261.13;123711;1099;104242;-79
2022/12/09 04:34:00;;;;;;;48.53;15.97;;;;;;;4.95;100.00;100262.75;123738;1099;104306;-79
2022/12/09 04:36:31;;;;;;;46.40;15.03;;;;;;;4.94;100.00;100245.36;123707;1099;104379;-80
2022/12/09 04:39:02;;;;;;;45.40;15.87;;;;;;;4.93;100.00;100249.67;123781;1099;104281;-78
2022/12/09 04:41:33;;;;;;;44.53;15.90;;;;;;;4.91;100.00;100251.30;123725;1099;104328;-78
2022/12/09 04:44:05;;;;;;;45.73;16.13;;;;;;;4.91;100.00;100251.30;123641;1099;104198;-78
2022/12/09 04:46:36;;;;;;;39.10;15.55;;;;;;;4.91;100.00;100246.11;123735;1098;104405;-79
2022/12/09 04:49:07;;;;;;;40.70;16.37;;;;;;;4.92;100.00;100250.47;123738;1099;104259;-79
2022/12/09 04:51:38;;;;;;;37.97;14.97;;;;;;;4.92;100.00;100244.39;123664;1099;104225;-79
2022/12/09 04:54:13;;;;;;;40.63;15.13;;;;;;;4.91;100.00;100246.11;123677;1099;104268;-78
2022/12/09 04:56:45;;;;;;;37.77;14.93;;;;;;;4.92;100.00;100246.98;123711;1099;104396;-79
2022/12/09 04:59:18;;;;;;;44.73;13.90;;;;;;;4.93;100.00;100249.67;123618;1098;104271;-78
2022/12/09 05:01:49;;;;;;;40.07;13.73;;;;;;;4.93;100.00;100252.27;123661;1099;104348;-78
2022/12/09 05:04:20;;;;;;;43.57;13.03;;;;;;;4.94;100.00;100242.75;123467;1099;104245;-79
2022/12/09 05:06:51;;;;;;;40.13;13.63;;;;;;;4.94;100.00;100246.27;123406;1099;104687;-77
2022/12/09 05:09:22;;;;;;;37.57;13.93;;;;;;;4.96;100.00;100243.75;123503;1099;104290;-78
2022/12/09 05:11:53;;;;;;;35.70;13.77;;;;;;;4.97;100.00;100240.32;123465;1099;104312;-78
2022/12/09 05:14:25;;;;;;;44.07;14.50;;;;;;;4.96;100.00;100242.04;123425;1099;104390;-78
2022/12/09 05:16:56;;;;;;;51.33;13.43;;;;;;;4.96;100.00;100246.36;123356;1098;104252;-77
2022/12/09 05:19:28;;;;;;;49.23;14.43;;;;;;;4.96;100.00;100244.64;123428;1099;104268;-77
2022/12/09 05:21:59;;;;;;;50.60;13.13;;;;;;;4.97;100.00;100251.64;123538;1099;104387;-77
2022/12/09 05:24:31;;;;;;;45.67;13.30;;;;;;;4.96;100.00;100247.23;123676;1099;104239;-77
2022/12/09 05:27:02;;;;;;;40.05;15.30;;;;;;;4.97;100.00;100253.32;123686;1098;104338;-77
2022/12/09 05:29:33;;;;;;;47.13;14.77;;;;;;;4.97;100.00;100259.44;123778;1099;104242;-77
2022/12/09 05:32:04;;;;;;;51.23;14.67;;;;;;;5.00;100.00;100256.09;123724;1099;104619;-78
2022/12/09 05:34:35;;;;;;;51.47;14.17;;;;;;;5.00;100.00;100262.20;123754;1098;104302;-78
2022/12/09 05:37:07;;;;;;;67.10;15.33;;;;;;;5.03;100.00;100257.17;123537;1099;104360;-77
2022/12/09 05:39:38;;;;;;;42.77;14.53;;;;;;;5.07;100.00;100254.73;123451;1099;104274;-77
2022/12/09 05:42:09;;;;;;;49.80;15.63;;;;;;;5.08;100.00;100246.09;123726;1099;104293;-77
2022/12/09 05:44:40;;;;;;;41.23;15.07;;;;;;;5.10;100.00;100247.09;123803;1098;104275;-78
2022/12/09 05:47:11;;;;;;;44.67;14.83;;;;;;;5.12;100.00;100243.74;123975;1099;104347;-77
2022/12/09 05:49:42;;;;;;;41.63;15.43;;;;;;;5.13;100.00;100242.06;123622;1099;104482;-78
2022/12/09 05:52:14;;;;;;;54.33;14.97;;;;;;;5.15;100.00;100243.91;123801;1099;104274;-78
2022/12/09 05:54:45;;;;;;;49.30;15.23;;;;;;;5.15;100.00;100243.91;123863;1099;104252;-78
2022/12/09 05:57:16;;;;;;;43.97;14.53;;;;;;;5.16;100.00;100244.83;123721;1099;104224;-78
2022/12/09 05:59:47;;;;;;;57.63;14.27;;;;;;;5.15;100.00;100249.11;124005;1099;104299;-77
2022/12/09 06:02:18;;;;;;;41.10;14.13;;;;;;;5.18;100.00;100245.79;123931;1099;104387;-79
2022/12/09 06:04:49;;;;;;;39.63;14.20;;;;;;;5.22;100.00;100242.55;124096;1099;104185;-79
2022/12/09 06:07:21;;;;;;;40.77;13.63;;;;;;;5.25;100.00;100241.80;123647;1099;104409;-80
2022/12/09 06:09:52;;;;;;;40.97;14.73;;;;;;;5.26;100.00;100249.68;123773;1099;104325;-80
2022/12/09 06:12:23;;;;;;;44.60;14.47;;;;;;;5.28;100.00;100248.05;124327;1099;104300;-80
2022/12/09 06:14:54;;;;;;;40.10;13.70;;;;;;;5.31;100.00;100258.61;124413;1099;104275;-79
2022/12/09 06:17:25;;;;;;;42.27;13.80;;;;;;;5.36;100.00;100275.39;124464;1099;104226;-79
2022/12/09 06:19:56;;;;;;;43.63;14.27;;;;;;;5.40;100.00;100268.63;124700;1099;104249;-77
2022/12/09 06:22:28;;;;;;;45.50;14.20;;;;;;;5.44;100.00;100275.80;124547;1099;104248;-77
2022/12/09 06:24:59;;;;;;;39.20;13.17;;;;;;;5.49;100.00;100268.23;125010;1099;102928;-78
2022/12/09 06:27:30;;;;;;;38.77;14.17;;;;;;;5.52;100.00;100268.39;124853;1099;102009;-77
2022/12/09 06:30:02;;;;;;;40.37;13.10;;;;;;;5.53;100.00;100259.74;124412;1099;104242;-77
2022/12/09 06:32:34;;;;;;;43.00;13.63;;;;;;;5.56;100.00;100250.41;124823;1099;102452;-77
2022/12/09 06:35:07;;;;;;;49.63;13.60;;;;;;;5.62;100.00;100265.43;124807;1099;104217;-79
2022/12/09 06:37:38;;;;;;;37.33;14.17;;;;;;;5.65;100.00;100264.70;124863;1099;105538;-75
2022/12/09 06:40:13;;;;;;;45.57;14.50;;;;;;;5.69;100.00;100257.13;124661;1099;104398;-77
2022/12/09 06:42:44;;;;;;;44.67;15.47;;;;;;;5.72;100.00;100266.82;124802;1099;104251;-78
2022/12/09 06:45:15;;;;;;;52.53;15.07;;;;;;;5.76;100.00;100272.27;124717;1099;104172;-79
2022/12/09 06:47:48;;;;;;;43.17;15.60;;;;;;;5.81;100.00;100266.38;124994;1099;102083;-76
2022/12/09 06:50:20;;;;;;;44.50;16.77;;;;;;;5.85;100.00;100269.22;124949;1099;104169;-78
2022/12/09 06:52:51;;;;;;;45.37;15.67;;;;;;;5.87;100.00;100272.78;125016;1099;102333;-76
2022/12/09 06:55:22;;;;;;;41.93;15.47;;;;;;;5.91;100.00;100263.44;124988;1099;104276;-78
2022/12/09 06:57:57;;;;;;;43.00;14.83;;;;;;;5.94;100.00;100259.27;124228;1099;104370;-75
2022/12/09 07:00:30;;;;;;;58.47;17.30;;;;;;;6.00;100.00;100257.81;124186;1099;104331;-77
2022/12/09 07:03:06;;;;;;;45.50;16.50;;;;;;;6.02;100.00;100257.08;124745;1099;104225;-76
2022/12/09 07:05:48;;;;;;;50.67;16.77;;;;;;;6.03;100.00;100260.56;124829;1099;102964;-77
2022/12/09 07:08:19;;;;;;;39.97;15.53;;;;;;;6.05;100.00;100256.34;124858;1099;104184;-76
2022/12/09 07:10:50;;;;;;;41.10;15.60;;;;;;;6.07;100.00;100254.70;124805;1099;104217;-77
2022/12/09 07:13:25;;;;;;;49.33;16.53;;;;;;;6.09;100.00;100259.19;124573;1099;104272;-76
2022/12/09 07:16:03;;;;;;;74.03;20.57;;;;;;;6.14;100.00;100261.10;125039;1098;104201;-76
2022/12/09 07:18:39;;;;;;;40.80;16.50;;;;;;;6.18;100.00;100263.05;124900;1099;104753;-75
2022/12/09 07:21:12;;;;;;;40.27;15.80;;;;;;;6.20;100.00;100262.33;124611;1099;104227;-75
2022/12/09 07:23:46;;;;;;;41.77;15.70;;;;;;;6.23;100.00;100264.16;125183;1099;104242;-78
2022/12/09 07:26:19;;;;;;;38.83;15.53;;;;;;;6.26;100.00;100259.11;124804;1099;104261;-78
2022/12/09 07:28:51;;;;;;;42.67;16.77;;;;;;;6.32;100.00;100259.41;124892;1099;105111;-78
2022/12/09 07:31:24;;;;;;;39.53;15.70;;;;;;;6.35;100.00;100246.52;124857;1099;104258;-76
2022/12/09 07:33:59;;;;;;;45.30;17.00;;;;;;;6.39;100.00;100253.69;125025;1099;103322;-77
2022/12/09 07:36:32;;;;;;;40.87;17.00;;;;;;;6.44;100.00;100253.91;124703;1099;103269;-77
2022/12/09 07:39:05;;;;;;;54.70;18.23;;;;;;;6.47;100.00;100254.94;124970;1099;102991;-76
2022/12/09 07:41:38;;;;;;;46.45;17.65;;;;;;;6.47;100.00;100247.13;124765;1099;104242;-76
2022/12/09 07:44:09;;;;;;;45.60;18.13;;;;;;;6.51;100.00;100255.97;124712;1099;104626;-76
2022/12/09 07:46:47;;;;;;;44.13;18.30;;;;;;;6.55;100.00;100263.13;124722;1099;103039;-76
2022/12/09 07:49:18;;;;;;;48.50;19.03;;;;;;;6.58;100.00;100265.00;124911;1099;102656;-77
2022/12/09 07:51:50;;;;;;;137.23;29.20;;;;;;;6.61;100.00;100253.00;124793;1098;104249;-76
2022/12/09 07:54:22;;;;;;;55.37;20.23;;;;;;;6.65;100.00;100251.41;124912;1099;104280;-77
2022/12/09 07:56:54;;;;;;;44.90;18.63;;;;;;;6.69;100.00;100247.27;124762;1099;104188;-77
2022/12/09 07:59:26;;;;;;;39.63;18.27;;;;;;;6.72;100.00;100240.47;124847;1099;102757;-77
2022/12/09 08:01:58;;;;;;;38.23;18.03;;;;;;;6.76;100.00;100250.23;124813;1099;104195;-76
2022/12/09 08:04:30;;;;;;;39.27;17.93;;;;;;;6.81;100.00;100258.27;124606;1099;104245;-76
2022/12/09 08:07:02;;;;;;;44.73;19.13;;;;;;;6.84;100.00;100256.69;124945;1099;104182;-78
2022/12/09 08:09:33;;;;;;;41.70;18.93;;;;;;;6.90;100.00;100265.61;124938;1098;104253;-77
2022/12/09 08:12:05;;;;;;;41.57;18.47;;;;;;;6.92;100.00;100263.95;124987;1099;104229;-76
2022/12/09 08:14:36;;;;;;;43.63;19.90;;;;;;;6.95;100.00;100270.23;125092;1099;102974;-77
2022/12/09 08:17:08;;;;;;;39.13;18.00;;;;;;;7.00;100.00;100266.11;125117;1099;102769;-76
2022/12/09 08:19:42;;;;;;;49.67;20.92;;;;;;;7.10;100.00;100277.86;124883;1099;104402;-77
2022/12/09 08:22:14;;;;;;;56.47;20.07;;;;;;;7.20;100.00;100266.15;126721;1098;101764;-76
2022/12/09 08:24:46;;;;;;;47.20;18.90;;;;;;;7.26;100.00;100260.30;124987;1099;103271;-77
2022/12/09 08:27:21;;;;;;;46.50;19.45;;;;;;;7.32;100.00;100258.88;124998;1099;102545;-78
2022/12/09 08:29:54;;;;;;;38.07;17.60;;;;;;;7.38;100.00;100259.11;124726;1099;104172;-78
2022/12/09 08:32:30;;;;;;;38.83;17.37;;;;;;;7.48;100.00;100260.44;124995;1099;104348;-79
2022/12/09 08:35:01;;;;;;;50.40;20.60;;;;;;;7.55;100.00;100252.03;124634;1099;104376;-78
2022/12/09 08:37:39;;;;;;;42.57;18.73;;;;;;;7.60;100.00;100256.58;124610;1099;104065;-79
2022/12/09 08:40:13;;;;;;;38.83;17.77;;;;;;;7.65;100.00;100260.27;125102;1098;104204;-78
2022/12/09 08:42:44;;;;;;;35.93;16.97;;;;;;;7.67;100.00;100262.12;125053;1099;104238;-79
2022/12/09 08:45:15;;;;;;;37.37;17.20;;;;;;;7.68;100.00;100255.18;125118;1098;102598;-79
2022/12/09 08:47:47;;;;;;;33.40;16.83;;;;;;;7.71;100.00;100247.48;125077;1099;102381;-78
2022/12/09 08:50:18;;;;;;;37.50;17.23;;;;;;;7.74;100.00;100251.14;124613;1099;104204;-77
2022/12/09 08:52:50;;;;;;;38.57;16.67;;;;;;;7.81;100.00;100240.95;124772;1099;104220;-78
2022/12/09 08:55:22;;;;;;;60.53;22.50;;;;;;;7.85;100.00;100240.23;124951;1099;104258;-76
2022/12/09 08:57:53;;;;;;;33.27;17.47;;;;;;;7.88;100.00;100229.91;125105;1099;104328;-76
2022/12/09 09:00:26;;;;;;;36.40;16.50;;;;;;;7.92;100.00;100237.95;124781;1099;102270;-78
2022/12/09 09:02:58;;;;;;;36.97;17.33;;;;;;;7.96;100.00;100236.34;124818;1099;104221;-77
2022/12/09 09:05:29;;;;;;;39.47;18.60;;;;;;;7.97;100.00;100235.53;124730;1099;104185;-76
2022/12/09 09:08:01;;;;;;;36.05;18.35;;;;;;;7.95;100.00;100226.74;125177;1099;103474;-77
2022/12/09 09:10:32;;;;;;;33.53;17.17;;;;;;;7.91;100.00;100230.92;125167;1099;104248;-75
2022/12/09 09:13:03;;;;;;;34.93;16.93;;;;;;;7.84;100.00;100228.91;124751;1099;104280;-75
2022/12/09 09:15:44;;;;;;;32.50;16.60;;;;;;;7.82;100.00;100235.80;124685;1099;104249;-76
2022/12/09 09:18:17;;;;;;;32.40;16.47;;;;;;;7.82;100.00;100242.72;125170;1099;102496;-76
2022/12/09 09:20:51;;;;;;;34.17;17.20;;;;;;;7.83;100.00;100240.17;125104;1099;104245;-75
2022/12/09 09:23:22;;;;;;;33.48;16.30;;;;;;;7.88;100.00;100240.36;125382;1099;102628;-77
2022/12/09 09:25:55;;;;;;;32.70;16.37;;;;;;;7.90;100.00;100226.55;125305;1099;104179;-77
2022/12/09 09:28:27;;;;;;;33.20;16.87;;;;;;;7.94;100.00;100224.06;125434;1099;103203;-76
2022/12/09 09:31:02;;;;;;;30.67;16.07;;;;;;;7.95;100.00;100221.52;125370;1099;102716;-77
2022/12/09 09:33:33;;;;;;;31.90;16.03;;;;;;;7.92;100.00;100214.44;125369;1099;104224;-77
2022/12/09 09:36:11;;;;;;;33.15;16.45;;;;;;;7.92;100.00;100217.05;125332;1099;103708;-76
2022/12/09 09:38:42;;;;;;;31.90;16.83;;;;;;;7.92;100.00;100221.39;125378;1099;103364;-77
2022/12/09 09:41:25;;;;;;;35.40;18.47;;;;;;;7.91;100.00;100215.25;125419;1099;104095;-76
2022/12/09 09:43:57;;;;;;;32.10;16.90;;;;;;;7.87;100.00;100204.64;125224;1099;104179;-76
2022/12/09 09:46:36;;;;;;;36.60;18.37;;;;;;;7.87;100.00;100212.48;125264;1099;103433;-76
2022/12/09 09:49:14;;;;;;;35.87;18.83;;;;;;;7.85;100.00;100220.25;125294;1099;104261;-76
2022/12/09 09:51:46;;;;;;;37.53;19.80;;;;;;;7.81;100.00;100223.55;124693;1099;102978;-76
2022/12/09 09:54:18;;;;;;;33.53;17.57;;;;;;;7.80;100.00;100221.75;125228;1099;102239;-76
2022/12/09 09:56:55;;;;;;;33.67;17.50;;;;;;;7.78;100.00;100223.42;125386;1099;104172;-76
2022/12/09 09:59:39;;;;;;;32.53;16.77;;;;;;;7.76;100.00;100225.08;125491;1099;102221;-77
2022/12/09 10:02:19;;;;;;;33.40;17.10;;;;;;;7.78;100.00;100218.20;125240;1099;103657;-77
2022/12/09 10:05:05;;;;;;;32.57;17.60;;;;;;;7.80;100.00;100215.65;125160;1099;104230;-76
2022/12/09 10:07:41;;;;;;;32.93;17.93;;;;;;;7.91;100.00;100210.02;125183;1099;104251;-78
2022/12/09 10:10:28;;;;;;;32.90;16.57;;;;;;;7.98;100.00;100210.28;125378;1098;104278;-77
2022/12/09 10:13:11;;;;;;;32.27;17.43;;;;;;;8.03;100.00;100214.00;125149;1099;104245;-79
2022/12/09 10:15:54;;;;;;;35.63;17.63;;;;;;;8.04;100.00;100220.98;126778;1099;104094;-77
2022/12/09 10:18:31;;;;;;;31.13;16.37;;;;;;;8.07;100.00;100221.11;126836;1098;102285;-78
2022/12/09 10:21:24;;;;;;;34.63;17.80;;;;;;;8.10;100.00;100216.02;126845;1098;101859;-77
2022/12/09 10:24:14;;;;;;;28.60;15.63;;;;;;;8.06;100.00;100211.52;126626;1098;112940;-77
2022/12/09 10:26:54;;;;;;;29.43;15.27;;;;;;;8.02;100.00;100204.36;126724;1099;103660;-77
2022/12/09 10:29:48;;;;;;;26.93;14.37;;;;;;;8.00;100.00;100217.36;126831;1098;102890;-77
2022/12/09 10:32:24;;;;;;;29.50;14.73;;;;;;;8.02;100.00;100210.47;126489;1099;102405;-77
2022/12/09 10:35:02;;;;;;;44.53;19.87;;;;;;;8.03;100.00;100209.66;126654;1099;101916;-76
2022/12/09 10:37:37;;;;;;;33.87;17.43;;;;;;;8.07;100.00;100221.11;126722;1098;101518;-78
2022/12/09 10:40:26;;;;;;;37.50;18.20;;;;;;;8.08;100.00;100222.91;126639;1098;102692;-76
2022/12/09 10:43:37;;;;;;;34.63;16.63;;;;;;;8.13;100.00;100230.94;126552;1098;102084;-75
2022/12/09 10:46:23;;;;;;;32.97;16.30;;;;;;;8.18;100.00;100221.56;125986;1099;102334;-77
2022/12/09 10:49:02;;;;;;;30.30;16.00;;;;;;;8.21;100.00;100216.45;126571;1099;102574;-77
2022/12/09 10:51:51;;;;;;;30.13;15.43;;;;;;;8.21;100.00;100214.75;126656;1099;102584;-78
2022/12/09 10:54:35;;;;;;;31.70;16.27;;;;;;;8.26;100.00;100215.82;126137;1099;102847;-79
2022/12/09 10:57:25;;;;;;;31.02;15.83;;;;;;;8.31;100.00;100216.01;126821;1098;104050;-76
2022/12/09 11:00:06;;;;;;;29.90;16.07;;;;;;;8.34;100.00;100210.02;126768;1098;102630;-77
2022/12/09 11:02:54;;;;;;;31.57;16.37;;;;;;;8.36;100.00;100203.13;126043;1099;102699;-74
2022/12/09 11:05:33;;;;;;;31.37;15.90;;;;;;;8.41;100.00;100201.57;126143;1099;103435;-77
2022/12/09 11:08:10;;;;;;;35.87;17.07;;;;;;;8.47;100.00;100211.42;126679;1098;101746;-77
2022/12/09 11:10:52;;;;;;;34.07;16.83;;;;;;;8.47;100.00;100207.08;125273;1099;103681;-76
2022/12/09 11:13:41;;;;;;;31.40;15.90;;;;;;;8.50;100.00;100204.59;124762;1099;104172;-76
2022/12/09 11:16:14;;;;;;;32.77;16.23;;;;;;;8.53;100.00;100203.82;125251;1099;104175;-77
2022/12/09 11:18:48;;;;;;;27.97;14.90;;;;;;;8.55;100.00;100215.22;125214;1099;104169;-76
2022/12/09 11:21:35;;;;;;;30.92;16.60;;;;;;;8.50;100.00;100211.55;125541;1099;104274;-76
2022/12/09 11:24:19;;;;;;;31.63;16.20;;;;;;;8.54;100.00;100203.88;125507;1099;103979;-78
2022/12/09 11:26:51;;;;;;;33.13;17.77;;;;;;;8.53;100.00;100212.55;124883;1102;102613;-78